ADDS METAR Data INFO
IDs: Format: Raw Decoded Include TAF

Data at: 0900 UTC 20 Oct 2017

KDEN 200853Z 25008KT 10SM FEW220 10/M01 A2982 RMK AO2 SLP036 T01001011 56014
KDEN 200753Z 24003KT 10SM FEW220 10/M01 A2984 RMK AO2 SLP042 T01001006
KDEN 200653Z 23007KT 10SM FEW220 11/M01 A2985 RMK AO2 SLP043 T01061006 402390056
KDEN 200553Z 22008KT 10SM FEW220 12/M01 A2987 RMK AO2 SLP052 T01221011 10200 20106 58011
KDEN 200453Z 24011KT 10SM FEW220 12/M02 A2989 RMK AO2 SLP063 T01221017
KDEN 200353Z 21007KT 10SM SCT220 13/M03 A2991 RMK AO2 SLP074 T01281028
KDEN 200253Z 18011KT 10SM SCT220 11/M02 A2991 RMK AO2 SLP085 T01111017 50000
KDEN 200153Z 18008KT 10SM FEW110 SCT220 12/M03 A2991 RMK AO2 SLP092 T01221028
KDEN 200053Z 19005KT 10SM FEW110 BKN220 13/M01 A2991 RMK AO2 SLP092 T01331011
KDEN 192353Z 06004KT 10SM FEW110 BKN220 18/M01 A2991 RMK AO2 SLP081 T01831011 10239 20183 58008
KDEN 192253Z 02007KT 10SM FEW110 BKN220 21/M01 A2992 RMK AO2 SLP076 T02111011
KDEN 192153Z 02009KT 10SM FEW110 BKN220 23/M01 A2993 RMK AO2 SLP074 T02281011
KDEN 192053Z 05008KT 10SM FEW110 BKN220 23/M02 A2994 RMK AO2 SLP072 T02331017 56030
KDEN 191953Z 03004KT 10SM FEW120 BKN220 23/M04 A2997 RMK AO2 SLP082 T02331044
KDEN 191853Z VRB04KT 10SM FEW140 BKN220 23/M06 A3001 RMK AO2 SLP101 T02331056
KDEN 191753Z 20004KT 10SM FEW120 BKN220 21/M07 A3004 RMK AO2 SLP115 T02111067 10211 20056 58012
KDEN 191653Z 25008KT 10SM BKN220 19/M06 A3006 RMK AO2 SLP121 T01891061
KDEN 191553Z 23008KT 10SM BKN220 16/M05 A3008 RMK AO2 SLP134 T01561050
KDEN 191453Z 25005KT 10SM BKN220 12/M04 A3008 RMK AO2 SLP152 T01221044 53002
KDEN 191353Z 25005KT 10SM FEW140 SCT220 07/M04 A3008 RMK AO2 SLP156 T00721044
KDEN 191253Z 26005KT 10SM FEW140 FEW220 07/M06 A3008 RMK AO2 SLP151 T00671056
KDEN 191153Z 26007KT 10SM FEW220 07/M06 A3008 RMK AO2 SLP137 T00721056 10133 20067 56005
KDEN 191053Z 26009KT 10SM FEW220 08/M06 A3008 RMK AO2 SLP128 T00831061
KDEN 190953Z 25009KT 10SM FEW220 10/M06 A3008 RMK AO2 SLP124 T01001061
KDEN 190853Z 24008KT 10SM FEW220 12/M05 A3009 RMK AO2 SLP123 T01221050 56009
KDEN 190753Z 19013KT 10SM CLR 12/M04 A3011 RMK AO2 SLP129 T01221044
KDEN 190653Z 18012KT 10SM CLR 09/M04 A3012 RMK AO2 SLP139 T00941039 402500072
KDEN 190553Z 19009KT 10SM CLR 11/M05 A3013 RMK AO2 SLP143 T01061050 10189 20078 58002
KDEN 190453Z 21012KT 10SM CLR 13/M06 A3014 RMK AO2 SLP148 T01281056
KDEN 190353Z 19014KT 10SM CLR 13/M07 A3015 RMK AO2 SLP157 T01281067
KDEN 190253Z 16011KT 10SM CLR 08/M06 A3013 RMK AO2 SLP167 T00831056 50004
KDEN 190153Z 15010KT 10SM CLR 10/M06 A3014 RMK AO2 SLP167 T01001056
KDEN 190053Z 15008KT 10SM FEW250 13/M07 A3013 RMK AO2 SLP154 T01331067
KDEN 182353Z 13007KT 10SM FEW250 19/M07 A3012 RMK AO2 SLP142 T01891072 10250 20189 55003
KDEN 182253Z 15007KT 10SM FEW250 24/M08 A3011 RMK AO2 SLP131 T02391083
KDEN 182153Z 14010KT 10SM FEW250 25/M11 A3011 RMK AO2 SLP130 T02501106